Time;durP1;ratioP1;P1;durP2;ratioP2;P2;SDS_P1;SDS_P2;PMS_P1;PMS_P2;Temp;Humidity;BMP_temperature;BMP_pressure;BME280_temperature;BME280_humidity;BME280_pressure;Samples;Min_cycle;Max_cycle;Signal;HPM_P1;HPM_P2
2023/10/07 00:01:33;;;;;;;7.55;4.22;;;;;;;14.84;100.00;100492.09;5101308;28;20107;-81
2023/10/07 00:03:59;;;;;;;9.30;2.90;;;;;;;14.85;100.00;100487.13;5098339;28;20027;-82
2023/10/07 00:06:34;;;;;;;7.15;3.17;;;;;;;14.88;100.00;100486.09;5099743;28;20059;-83
2023/10/07 00:09:10;;;;;;;5.10;3.08;;;;;;;14.75;100.00;100465.66;5098073;28;20024;-82
2023/10/07 00:11:36;;;;;;;6.97;2.70;;;;;;;14.82;100.00;100470.94;5095434;28;20466;-84
2023/10/07 00:14:02;;;;;;;7.28;3.35;;;;;;;15.02;100.00;100490.06;5097533;28;20097;-81
2023/10/07 00:16:28;;;;;;;4.90;2.30;;;;;;;15.04;100.00;100496.88;5097932;28;20106;-82
2023/10/07 00:18:55;;;;;;;8.05;2.80;;;;;;;15.09;100.00;100489.56;5096876;28;20441;-82
2023/10/07 00:21:39;;;;;;;6.50;2.92;;;;;;;15.08;100.00;100485.88;5096619;28;20059;-82
2023/10/07 00:24:06;;;;;;;6.97;2.55;;;;;;;15.03;100.00;100478.03;5081378;28;20028;-85
2023/10/07 00:26:34;;;;;;;6.93;3.17;;;;;;;15.11;100.00;100481.19;5096325;28;20032;-82
2023/10/07 00:29:04;;;;;;;6.93;2.75;;;;;;;15.12;100.00;100471.25;5078387;28;20023;-83
2023/10/07 00:31:50;;;;;;;5.97;2.80;;;;;;;15.14;100.00;100468.63;5094335;28;20036;-83
2023/10/07 00:34:22;;;;;;;7.43;3.35;;;;;;;15.13;100.00;100462.06;5095998;28;20028;-80
2023/10/07 00:36:49;;;;;;;3.88;2.42;;;;;;;15.20;100.00;100460.78;5095671;28;20027;-80
2023/10/07 00:39:37;;;;;;;9.88;3.03;;;;;;;15.18;100.00;100446.91;5097132;28;20467;-79
2023/10/07 00:42:07;;;;;;;6.25;2.72;;;;;;;15.29;100.00;100454.78;5095851;28;20120;-80
2023/10/07 00:44:33;;;;;;;7.15;3.15;;;;;;;15.26;100.00;100432.78;5096824;28;20039;-80
2023/10/07 00:49:41;;;;;;;4.97;2.20;;;;;;;15.39;100.00;100441.69;5096140;28;20122;-80
2023/10/07 00:52:13;;;;;;;9.15;2.30;;;;;;;15.40;100.00;100434.63;5095978;28;20381;-79
2023/10/07 00:54:50;;;;;;;;;;;;;;;15.43;100.00;100436.44;5078215;28;20036;-79
2023/10/07 00:57:37;;;;;;;8.18;2.60;;;;;;;15.47;100.00;100436.19;5095121;28;20361;-80
2023/10/07 01:02:56;;;;;;;6.20;2.97;;;;;;;15.53;100.00;100432.00;5094820;28;20027;-80
2023/10/07 01:05:27;;;;;;;6.25;3.05;;;;;;;15.53;100.00;100422.56;5093969;28;20044;-79
2023/10/07 01:07:53;;;;;;;4.82;2.10;;;;;;;15.56;100.00;100418.66;5077365;28;20036;-81
2023/10/07 01:10:38;;;;;;;7.82;3.15;;;;;;;15.58;100.00;100413.91;5110949;28;20480;-79
2023/10/07 01:13:25;;;;;;;6.15;2.42;;;;;;;15.59;100.00;100406.88;5094929;28;20024;-80
2023/10/07 01:15:53;;;;;;;9.15;2.65;;;;;;;15.54;100.00;100398.22;5095086;28;20102;-81
2023/10/07 01:18:20;;;;;;;4.75;2.60;;;;;;;15.57;100.00;100397.94;5094315;28;20177;-80
2023/10/07 01:21:10;;;;;;;4.78;2.22;;;;;;;15.58;100.00;100395.84;5093211;28;20088;-80
2023/10/07 01:23:53;;;;;;;4.38;2.65;;;;;;;15.60;100.00;100399.03;5094593;28;20474;-80
2023/10/07 01:26:23;;;;;;;5.35;1.88;;;;;;;15.59;100.00;100398.25;5094666;28;20054;-81
2023/10/07 01:29:13;;;;;;;9.40;2.58;;;;;;;15.57;100.00;100389.31;5094744;28;20028;-81
2023/10/07 01:31:59;;;;;;;3.90;2.22;;;;;;;15.59;100.00;100385.94;5094318;28;20477;-80
2023/10/07 01:34:35;;;;;;;5.55;2.72;;;;;;;15.58;100.00;100379.34;5092477;28;20035;-81
2023/10/07 01:37:04;;;;;;;5.40;2.28;;;;;;;15.59;100.00;100369.44;5093053;28;20032;-81
2023/10/07 01:39:31;;;;;;;5.28;2.58;;;;;;;15.61;100.00;100371.81;5091461;28;20024;-79
2023/10/07 01:42:01;;;;;;;5.47;2.38;;;;;;;15.62;100.00;100382.00;5092017;28;20067;-80
2023/10/07 01:44:32;;;;;;;6.00;2.60;;;;;;;15.61;100.00;100366.03;5091012;28;20016;-80
2023/10/07 01:46:57;;;;;;;8.57;3.13;;;;;;;15.61;100.00;100366.78;5092318;28;20410;-78
2023/10/07 01:49:23;;;;;;;7.95;2.63;;;;;;;15.63;100.00;100358.44;5074391;28;20146;-79
2023/10/07 01:51:52;;;;;;;4.40;2.25;;;;;;;15.64;100.00;100360.00;5092719;28;20103;-82
2023/10/07 01:54:24;;;;;;;4.28;2.72;;;;;;;15.66;100.00;100360.25;5075341;28;20753;-79
2023/10/07 01:56:56;;;;;;;3.45;2.30;;;;;;;15.64;100.00;100348.47;5092856;28;20362;-80
2023/10/07 01:59:22;;;;;;;4.93;2.05;;;;;;;15.70;100.00;100365.75;5092498;28;20231;-80
2023/10/07 02:01:58;;;;;;;4.28;2.08;;;;;;;15.67;100.00;100369.66;5073364;28;20016;-82
2023/10/07 02:04:27;;;;;;;3.80;2.22;;;;;;;15.63;100.00;100360.53;5093000;28;20411;-82
2023/10/07 02:06:56;;;;;;;5.13;2.80;;;;;;;15.65;100.00;100367.34;5091783;28;20062;-80
2023/10/07 02:09:42;;;;;;;5.90;2.63;;;;;;;15.64;100.00;100365.75;5074876;28;20027;-79
2023/10/07 02:12:09;;;;;;;7.65;2.65;;;;;;;15.61;100.00;100360.28;5094058;28;20043;-81
2023/10/07 02:14:37;;;;;;;5.03;2.72;;;;;;;15.68;100.00;100360.50;5094145;28;20469;-79
2023/10/07 02:17:06;;;;;;;6.65;2.47;;;;;;;15.71;100.00;100363.66;5076069;28;20089;-81
2023/10/07 02:19:34;;;;;;;4.70;2.50;;;;;;;15.68;100.00;100354.75;5094278;28;20492;-80
2023/10/07 02:22:21;;;;;;;6.55;2.35;;;;;;;15.71;100.00;100370.22;5094064;28;20353;-80
2023/10/07 02:25:01;;;;;;;9.50;2.75;;;;;;;15.68;100.00;100351.88;5092560;28;20032;-79
2023/10/07 02:27:37;;;;;;;9.32;2.95;;;;;;;15.73;100.00;100361.03;5094391;28;20028;-81
2023/10/07 02:30:05;;;;;;;4.88;2.45;;;;;;;15.71;100.00;100349.25;5093989;28;20028;-79
2023/10/07 02:32:32;;;;;;;4.78;2.15;;;;;;;15.75;100.00;100347.66;5059283;28;20024;-80
2023/10/07 02:35:00;;;;;;;11.00;2.90;;;;;;;15.82;100.00;100355.75;5075976;28;20048;-79
2023/10/07 02:37:31;;;;;;;6.40;2.50;;;;;;;15.81;100.00;100345.53;5092923;28;20058;-82
2023/10/07 02:40:04;;;;;;;3.55;2.33;;;;;;;15.84;100.00;100355.22;5092208;28;20513;-80
2023/10/07 02:42:34;;;;;;;7.97;2.97;;;;;;;15.79;100.00;100336.66;5092156;28;20036;-80
2023/10/07 02:47:39;;;;;;;5.35;2.88;;;;;;;15.78;100.00;100337.16;5093013;28;20462;-79
2023/10/07 02:50:08;;;;;;;3.83;2.15;;;;;;;15.78;100.00;100335.06;5094328;28;20027;-80
2023/10/07 02:52:36;;;;;;;4.88;2.60;;;;;;;15.77;100.00;100335.59;5094088;28;20028;-80
2023/10/07 02:58:01;;;;;;;5.90;2.47;;;;;;;15.76;100.00;100331.16;5092621;28;20098;-81
2023/10/07 03:00:29;;;;;;;5.72;2.10;;;;;;;15.73;100.00;100321.47;5093574;28;20028;-80
2023/10/07 03:05:59;;;;;;;6.05;2.58;;;;;;;15.77;100.00;100318.31;5011685;28;20080;-80
2023/10/07 03:11:11;;;;;;;6.07;2.50;;;;;;;15.75;100.00;100318.84;5092561;28;20028;-80
2023/10/07 03:13:39;;;;;;;5.80;2.30;;;;;;;15.79;100.00;100325.13;5095319;28;20062;-79
2023/10/07 03:16:59;;;;;;;5.22;2.08;;;;;;;15.81;100.00;100336.13;5078690;28;20032;-79
2023/10/07 03:21:49;;;;;;;5.47;2.53;;;;;;;15.75;100.00;100329.59;5096725;28;20024;-79
2023/10/07 03:24:13;;;;;;;7.47;2.30;;;;;;;15.73;100.00;100326.44;5095513;28;20035;-80
2023/10/07 03:26:41;;;;;;;4.68;2.50;;;;;;;15.72;100.00;100331.41;5096899;28;20275;-80
2023/10/07 03:29:07;;;;;;;5.88;2.58;;;;;;;15.71;100.00;100329.09;5096144;28;20497;-80
2023/10/07 03:31:59;;;;;;;5.90;2.47;;;;;;;15.70;100.00;100328.31;5096737;28;20047;-79
2023/10/07 03:34:24;;;;;;;5.13;2.25;;;;;;;15.67;100.00;100327.25;5095773;28;20032;-80
2023/10/07 03:42:19;;;;;;;5.47;2.63;;;;;;;15.43;100.00;100300.31;5098871;28;20043;-80
2023/10/07 03:44:47;;;;;;;8.35;2.85;;;;;;;15.48;100.00;100311.81;5099384;28;20024;-79
2023/10/07 03:47:15;;;;;;;5.95;2.78;;;;;;;15.42;100.00;100305.28;5100677;28;20011;-80
2023/10/07 03:49:41;;;;;;;5.30;2.63;;;;;;;15.39;100.00;100294.03;5118839;28;20040;-80
2023/10/07 03:52:12;;;;;;;4.60;2.60;;;;;;;15.43;100.00;100301.09;5113877;28;20019;-80
2023/10/07 03:54:47;;;;;;;4.10;2.28;;;;;;;15.41;100.00;100297.19;5115406;28;20052;-82
2023/10/07 03:57:15;;;;;;;8.27;3.55;;;;;;;15.37;100.00;100300.31;5117385;28;20059;-81
2023/10/07 03:59:41;;;;;;;4.63;2.08;;;;;;;15.25;100.00;100281.50;5100654;28;20024;-81
2023/10/07 04:05:09;;;;;;;8.00;3.17;;;;;;;15.22;100.00;100294.06;5098125;28;20096;-81
2023/10/07 04:07:43;;;;;;;5.70;2.47;;;;;;;15.28;100.00;100315.78;5096759;28;20035;-82
2023/10/07 04:10:31;;;;;;;6.07;2.80;;;;;;;15.23;100.00;100313.69;5095924;28;20429;-81
2023/10/07 04:12:58;;;;;;;6.57;2.58;;;;;;;15.20;100.00;100311.88;5077924;28;20103;-80
2023/10/07 04:15:29;;;;;;;5.78;2.50;;;;;;;15.22;100.00;100315.00;5095690;28;20054;-80
2023/10/07 04:17:59;;;;;;;8.20;2.47;;;;;;;15.20;100.00;100316.84;5096105;28;20043;-79
2023/10/07 04:20:42;;;;;;;7.43;2.67;;;;;;;15.23;100.00;100316.56;5094578;28;20045;-77
2023/10/07 04:23:09;;;;;;;5.53;2.28;;;;;;;15.25;100.00;100328.34;5095943;28;20369;-79
2023/10/07 04:25:43;;;;;;;6.65;2.28;;;;;;;15.26;100.00;100312.66;5094777;28;20085;-80
2023/10/07 04:28:13;;;;;;;4.55;2.30;;;;;;;15.32;100.00;100318.38;5094297;28;20035;-82
2023/10/07 04:30:40;;;;;;;3.90;2.33;;;;;;;15.36;100.00;100326.78;5096528;28;20089;-80
2023/10/07 04:33:09;;;;;;;6.57;2.33;;;;;;;15.37;100.00;100322.56;5095451;28;20392;-81
2023/10/07 04:35:37;;;;;;;4.40;2.60;;;;;;;15.34;100.00;100312.91;5095738;28;20090;-82
2023/10/07 04:38:18;;;;;;;9.48;2.35;;;;;;;15.39;100.00;100317.06;5077822;28;20052;-81
2023/10/07 04:40:53;;;;;;;7.22;2.50;;;;;;;15.35;100.00;100314.47;5096136;28;20028;-83
2023/10/07 04:43:35;;;;;;;4.55;2.30;;;;;;;15.35;100.00;100302.94;5095631;28;20032;-80
2023/10/07 04:46:20;;;;;;;;;;;;;;;15.38;100.00;100309.75;5095857;28;20047;-82
2023/10/07 04:48:54;;;;;;;5.47;3.03;;;;;;;15.39;100.00;100314.97;5094975;28;19914;-82
2023/10/07 04:51:35;;;;;;;8.55;2.60;;;;;;;15.43;100.00;100312.63;5095456;28;20468;-80
2023/10/07 04:54:01;;;;;;;4.43;2.15;;;;;;;15.49;100.00;100313.38;5095445;28;20032;-80
2023/10/07 04:56:31;;;;;;;3.85;2.05;;;;;;;15.52;100.00;100323.06;5056936;28;20466;-82
2023/10/07 04:59:00;;;;;;;4.40;2.30;;;;;;;15.49;100.00;100315.47;5074613;28;20051;-81
2023/10/07 05:01:33;;;;;;;7.75;2.13;;;;;;;15.56;100.00;100326.47;5073341;28;20059;-82
2023/10/07 05:04:15;;;;;;;4.88;2.50;;;;;;;15.64;100.00;100324.66;5073900;28;20454;-81
2023/10/07 05:06:43;;;;;;;5.47;2.58;;;;;;;15.57;100.00;100320.16;5057197;28;20035;-82
2023/10/07 05:09:09;;;;;;;7.68;2.75;;;;;;;15.69;100.00;100327.50;5075142;28;20359;-81
2023/10/07 05:11:40;;;;;;;5.43;2.28;;;;;;;15.68;100.00;100322.28;5074867;28;20021;-80
2023/10/07 05:14:10;;;;;;;6.00;2.33;;;;;;;15.75;100.00;100320.94;5075226;28;20047;-83
2023/10/07 05:16:36;;;;;;;3.95;2.40;;;;;;;15.79;100.00;100328.00;5073540;28;20032;-81
2023/10/07 05:19:08;;;;;;;7.18;3.15;;;;;;;15.85;100.00;100325.09;5075166;28;20390;-80
2023/10/07 05:21:37;;;;;;;6.32;2.28;;;;;;;15.87;100.00;100322.47;5073726;28;20519;-81
2023/10/07 05:24:09;;;;;;;8.45;2.88;;;;;;;15.90;100.00;100330.06;5075315;28;20024;-81
2023/10/07 05:26:35;;;;;;;4.32;2.20;;;;;;;15.92;100.00;100322.44;5075176;28;20100;-81
2023/10/07 05:29:02;;;;;;;4.93;2.40;;;;;;;15.96;100.00;100322.94;5074928;28;20071;-82
2023/10/07 05:31:33;;;;;;;4.88;2.42;;;;;;;15.97;100.00;100327.41;5075190;28;20056;-81
2023/10/07 05:34:00;;;;;;;4.93;2.80;;;;;;;15.93;100.00;100315.38;5075009;28;20100;-81
2023/10/07 05:36:30;;;;;;;5.22;2.40;;;;;;;16.02;100.00;100326.59;5074926;28;20504;-86
2023/10/07 05:39:00;;;;;;;4.82;2.33;;;;;;;16.01;100.00;100319.25;5074481;28;20143;-91
2023/10/07 05:41:39;;;;;;;7.20;3.15;;;;;;;16.02;100.00;100317.94;5074910;28;20473;-84
2023/10/07 05:44:05;;;;;;;6.53;2.92;;;;;;;16.02;100.00;100306.41;5074803;28;20040;-86
2023/10/07 05:46:32;;;;;;;4.60;2.47;;;;;;;16.04;100.00;100297.25;5073506;28;20033;-84
2023/10/07 05:48:59;;;;;;;4.43;2.10;;;;;;;16.05;100.00;100296.72;5075571;28;20538;-88
2023/10/07 05:51:34;;;;;;;5.68;2.50;;;;;;;16.08;100.00;100301.41;5077096;28;20001;-90
2023/10/07 05:53:59;;;;;;;6.43;2.88;;;;;;;16.10;100.00;100293.03;5091012;28;20030;-87
2023/10/07 05:56:27;;;;;;;6.47;2.63;;;;;;;16.17;100.00;100303.19;5075587;28;20124;-81
2023/10/07 05:58:55;;;;;;;8.65;2.38;;;;;;;16.19;100.00;100312.13;5074946;28;20020;-85
2023/10/07 06:01:20;;;;;;;7.50;3.35;;;;;;;16.25;100.00;100312.88;5074003;28;20025;-81
2023/10/07 06:03:47;;;;;;;7.40;3.85;;;;;;;16.28;100.00;100322.53;5074138;28;20437;-82
2023/10/07 06:06:14;;;;;;;11.75;3.08;;;;;;;16.26;100.00;100316.50;5074444;28;20017;-80
2023/10/07 06:08:40;;;;;;;10.52;3.03;;;;;;;16.29;100.00;100315.47;5074279;28;20041;-80
2023/10/07 06:11:10;;;;;;;5.28;2.45;;;;;;;16.30;100.00;100314.16;5073160;28;20032;-79
2023/10/07 06:13:44;;;;;;;6.72;2.58;;;;;;;16.30;100.00;100314.16;5072567;28;20541;-79
2023/10/07 06:16:10;;;;;;;5.75;2.78;;;;;;;16.33;100.00;100324.63;5071812;28;20033;-79
2023/10/07 06:18:37;;;;;;;9.23;2.83;;;;;;;16.38;100.00;100318.03;5073769;28;20153;-81
2023/10/07 06:23:50;;;;;;;7.28;2.88;;;;;;;16.62;100.00;100314.50;5073705;28;20039;-80
2023/10/07 06:26:18;;;;;;;6.93;2.75;;;;;;;16.78;100.00;100325.16;5074144;28;20015;-80
2023/10/07 06:28:48;;;;;;;7.47;2.92;;;;;;;16.77;100.00;100309.94;5074500;28;20020;-85
2023/10/07 06:31:31;;;;;;;5.28;2.53;;;;;;;16.85;100.00;100328.22;5073532;28;20028;-82
2023/10/07 06:34:03;;;;;;;5.13;2.75;;;;;;;16.91;100.00;100331.84;5073033;28;20165;-82
2023/10/07 06:36:31;;;;;;;5.80;2.60;;;;;;;17.03;100.00;100332.56;5073406;28;20467;-85
2023/10/07 06:38:58;;;;;;;7.88;3.90;;;;;;;17.12;100.00;100326.44;5072498;28;20086;-78
2023/10/07 06:41:29;;;;;;;9.15;2.63;;;;;;;17.35;100.00;100333.56;5072893;28;20428;-82
2023/10/07 06:44:08;;;;;;;5.07;2.60;;;;;;;17.54;100.00;100330.78;5068859;28;20043;-79
2023/10/07 06:46:41;;;;;;;5.97;2.45;;;;;;;17.73;100.00;100334.50;5072033;28;20477;-79
2023/10/07 06:49:18;;;;;;;11.13;2.97;;;;;;;17.91;100.00;100330.13;5075150;28;20050;-80
2023/10/07 06:51:44;;;;;;;6.55;2.33;;;;;;;18.05;100.00;100337.56;5076658;28;20032;-81
2023/10/07 06:54:10;;;;;;;6.90;3.25;;;;;;;18.23;100.00;100336.00;5060594;28;20024;-80
2023/10/07 06:56:35;;;;;;;4.95;2.33;;;;;;;18.34;100.00;100318.53;5085105;28;20143;-79
2023/10/07 06:59:04;;;;;;;5.80;2.03;;;;;;;18.49;100.00;100315.94;5097796;28;20040;-77
2023/10/07 07:04:18;;;;;;;4.15;2.47;;;;;;;19.82;100.00;100307.06;5097629;28;20055;-81
2023/10/07 07:06:57;;;;;;;10.60;1.90;;;;;;;20.29;100.00;100301.38;5097484;28;20019;-80
2023/10/07 07:12:09;;;;;;;3.33;1.50;;;;;;;21.10;100.00;100298.38;5096808;28;20069;-80
2023/10/07 07:14:50;;;;;;;6.50;2.05;;;;;;;21.78;100.00;100279.94;5079457;28;20119;-78
2023/10/07 07:20:32;;;;;;;5.95;1.98;;;;;;;22.93;100.00;100268.16;5052055;28;19916;-78
2023/10/07 07:23:03;;;;;;;7.13;1.70;;;;;;;23.29;100.00;100277.53;5097063;28;20406;-76
2023/10/07 07:25:39;;;;;;;5.32;1.88;;;;;;;23.17;100.00;100290.16;5096393;28;20024;-79
2023/10/07 07:28:06;;;;;;;6.47;1.77;;;;;;;22.85;100.00;100290.69;5079733;28;20380;-79
2023/10/07 07:30:35;;;;;;;8.10;2.05;;;;;;;22.52;100.00;100280.88;5061788;28;20075;-78
2023/10/07 07:33:28;;;;;;;4.88;1.75;;;;;;;22.24;100.00;100286.78;5078331;28;20593;-79
2023/10/07 07:35:57;;;;;;;10.55;2.92;;;;;;;22.13;100.00;100272.53;5096137;28;20043;-78
2023/10/07 07:40:49;;;;;;;4.95;2.13;;;;;;;22.74;100.00;100294.72;5097158;28;20131;-78
2023/10/07 07:43:19;;;;;;;12.32;2.20;;;;;;;23.10;100.00;100280.06;5078614;28;20106;-80
2023/10/07 07:45:46;;;;;;;15.45;2.17;;;;;;;23.41;100.00;100294.63;5096579;28;20443;-81
2023/10/07 07:48:12;;;;;;;7.43;2.53;;;;;;;23.47;100.00;100290.16;5096689;28;20547;-84
2023/10/07 07:50:40;;;;;;;6.32;1.40;;;;;;;23.59;100.00;100287.66;5078897;28;20123;-81
2023/10/07 07:53:12;;;;;;;6.65;1.80;;;;;;;23.73;100.00;100289.75;5097133;28;20024;-82
2023/10/07 07:55:46;;;;;;;3.58;1.55;;;;;;;23.83;100.00;100284.09;5079805;28;20496;-83
2023/10/07 07:58:13;;;;;;;6.82;2.45;;;;;;;23.86;100.00;100291.66;5065572;28;20089;-84
2023/10/07 08:00:58;;;;;;;7.20;2.08;;;;;;;23.77;100.00;100284.31;5103839;28;20031;-82
2023/10/07 08:03:25;;;;;;;3.08;1.33;;;;;;;23.71;100.00;100274.97;5102045;28;20023;-83
2023/10/07 08:05:53;;;;;;;4.28;1.67;;;;;;;24.08;100.00;100282.06;5101252;28;20036;-84
2023/10/07 08:08:36;;;;;;;4.75;1.80;;;;;;;24.39;100.00;100287.84;5100113;28;20000;-83
2023/10/07 08:11:05;;;;;;;3.67;1.92;;;;;;;24.45;100.00;100274.53;5119365;28;20095;-80
2023/10/07 08:13:31;;;;;;;4.13;1.67;;;;;;;24.27;100.00;100286.69;5081680;28;20032;-83
2023/10/07 08:16:06;;;;;;;6.05;1.88;;;;;;;24.06;100.00;100292.78;5094926;28;20024;-83
2023/10/07 08:18:48;;;;;;;4.10;1.88;;;;;;;23.80;100.00;100280.19;5081311;28;20047;-82
2023/10/07 08:21:14;;;;;;;7.10;1.60;;;;;;;23.61;100.00;100271.09;5095733;28;20028;-80
2023/10/07 08:23:40;;;;;;;5.60;1.35;;;;;;;23.52;100.00;100294.22;5060797;28;20035;-81
2023/10/07 08:26:20;;;;;;;5.65;1.65;;;;;;;23.50;100.00;100291.13;5094509;28;20032;-78
2023/10/07 08:28:59;;;;;;;2.60;1.50;;;;;;;23.30;100.00;100276.16;5094238;28;20350;-79
2023/10/07 08:31:37;;;;;;;5.75;1.50;;;;;;;23.18;100.00;100298.31;5077690;28;20388;-79
2023/10/07 08:34:31;;;;;;;4.95;1.60;;;;;;;22.94;100.00;100282.16;5094072;28;20020;-78
2023/10/07 08:37:02;;;;;;;3.83;1.40;;;;;;;22.63;100.00;100268.09;5077094;28;20016;-78
2023/10/07 08:39:45;;;;;;;5.70;1.75;;;;;;;22.66;100.00;100284.44;5080088;28;20058;-78
2023/10/07 08:42:24;;;;;;;6.32;1.42;;;;;;;22.64;100.00;100287.13;5095733;28;20408;-78
2023/10/07 08:44:58;;;;;;;2.47;1.23;;;;;;;22.60;100.00;100287.50;5094987;28;20028;-79
2023/10/07 08:47:26;;;;;;;4.88;1.33;;;;;;;22.47;100.00;100276.03;5097461;28;20020;-81
2023/10/07 08:50:06;;;;;;;2.53;1.30;;;;;;;22.44;100.00;100285.91;5097289;28;20020;-80
2023/10/07 08:52:32;;;;;;;2.38;1.40;;;;;;;22.17;100.00;100282.50;5095624;28;20024;-80
2023/10/07 08:54:59;;;;;;;3.17;1.40;;;;;;;22.02;100.00;100279.50;5078028;28;20481;-78
2023/10/07 08:57:25;;;;;;;5.25;1.40;;;;;;;22.01;100.00;100292.47;5090749;28;20040;-79
2023/10/07 08:59:52;;;;;;;5.20;2.88;;;;;;;21.82;100.00;100272.41;5095961;28;20024;-79
2023/10/07 09:02:27;;;;;;;3.15;1.30;;;;;;;21.65;100.00;100289.53;5077312;28;20107;-79
2023/10/07 09:05:20;;;;;;;4.28;1.45;;;;;;;21.45;100.00;100273.69;5095503;28;20496;-79
2023/10/07 09:07:49;;;;;;;4.47;1.00;;;;;;;21.53;100.00;100294.88;5094879;28;20116;-78
2023/10/07 09:10:17;;;;;;;2.65;1.00;;;;;;;21.38;100.00;100276.53;5095341;28;20035;-79
2023/10/07 09:12:46;;;;;;;3.17;1.70;;;;;;;21.36;100.00;100282.13;5073451;28;20487;-79
2023/10/07 09:15:29;;;;;;;2.88;1.27;;;;;;;21.41;100.00;100295.75;5062279;28;20031;-78
2023/10/07 09:18:06;;;;;;;3.75;1.17;;;;;;;21.43;100.00;100295.97;5095040;28;20100;-80
2023/10/07 09:20:36;;;;;;;11.82;1.92;;;;;;;21.31;100.00;100292.56;5077014;28;20032;-79
2023/10/07 09:23:22;;;;;;;2.03;1.08;;;;;;;21.37;100.00;100283.69;5061159;28;20024;-79
2023/10/07 09:25:52;;;;;;;4.80;1.05;;;;;;;21.15;100.00;100267.63;5079299;28;20061;-79
2023/10/07 09:28:38;;;;;;;3.38;1.77;;;;;;;21.33;100.00;100289.09;5094145;28;20028;-80
2023/10/07 09:31:06;;;;;;;4.00;1.30;;;;;;;21.35;100.00;100286.38;5094479;28;20020;-80
2023/10/07 09:33:36;;;;;;;3.72;1.10;;;;;;;21.33;100.00;100281.16;5076784;28;20103;-81
2023/10/07 09:38:49;;;;;;;2.22;1.13;;;;;;;21.72;100.00;100271.38;5095267;28;20492;-81
2023/10/07 09:41:32;;;;;;;7.55;1.58;;;;;;;21.98;100.00;100279.84;5076383;28;20020;-80
2023/10/07 09:44:00;;;;;;;7.28;1.52;;;;;;;22.17;100.00;100294.16;5079419;28;20040;-82
2023/10/07 09:46:39;;;;;;;5.85;1.48;;;;;;;22.26;100.00;100273.22;5060190;28;20032;-80
2023/10/07 09:49:07;;;;;;;4.72;1.52;;;;;;;22.46;100.00;100277.38;5095865;28;20035;-81
2023/10/07 09:51:48;;;;;;;5.70;1.40;;;;;;;22.52;100.00;100287.47;5075697;28;20028;-79
2023/10/07 09:54:47;;;;;;;5.82;1.60;;;;;;;22.58;100.00;100280.69;5093831;28;20024;-77
2023/10/07 09:57:46;;;;;;;4.00;1.30;;;;;;;22.53;100.00;100289.03;5072279;28;20053;-79
2023/10/07 10:01:07;;;;;;;2.72;1.33;;;;;;;22.22;100.00;100295.34;5074446;28;20466;-82
2023/10/07 10:03:59;;;;;;;4.47;1.20;;;;;;;22.01;100.00;100298.31;5031050;28;20056;-78
2023/10/07 10:07:21;;;;;;;2.63;1.40;;;;;;;21.85;100.00;100311.19;5075010;28;20370;-78
2023/10/07 10:10:06;;;;;;;;;;;;;;;21.64;100.00;100305.44;5040745;28;20043;-77
2023/10/07 10:15:51;;;;;;;6.47;1.58;;;;;;;21.34;100.00;100305.16;5072757;28;20115;-76
2023/10/07 10:18:40;;;;;;;4.03;1.70;;;;;;;21.23;100.00;100304.16;5071924;28;20028;-78
2023/10/07 10:21:16;;;;;;;4.25;1.38;;;;;;;21.15;100.00;100311.22;5072156;28;20085;-77
2023/10/07 10:23:44;;;;;;;8.02;1.55;;;;;;;21.11;100.00;100304.97;5075452;28;20107;-77
2023/10/07 10:26:15;;;;;;;5.00;1.60;;;;;;;21.12;100.00;100309.44;5077593;28;20377;-77
2023/10/07 10:28:42;;;;;;;7.10;2.00;;;;;;;21.10;100.00;100300.50;5076493;28;20028;-78
2023/10/07 10:31:21;;;;;;;3.92;1.83;;;;;;;21.14;100.00;100322.06;5075671;28;20043;-80
2023/10/07 10:33:49;;;;;;;3.75;1.60;;;;;;;21.14;100.00;100324.19;5059418;28;20060;-78
2023/10/07 10:36:21;;;;;;;4.20;1.73;;;;;;;21.13;100.00;100316.84;5077472;28;20034;-77
2023/10/07 10:38:49;;;;;;;4.32;1.90;;;;;;;21.04;100.00;100318.09;5077570;28;20016;-77
2023/10/07 10:41:36;;;;;;;6.63;1.65;;;;;;;20.97;100.00;100309.31;5076260;28;20429;-80
2023/10/07 10:44:06;;;;;;;5.15;1.45;;;;;;;20.90;100.00;100307.88;5077310;28;20058;-79
2023/10/07 10:46:49;;;;;;;6.15;1.63;;;;;;;20.87;100.00;100311.91;5077383;28;20437;-78
2023/10/07 10:49:21;;;;;;;1.80;1.45;;;;;;;20.70;100.00;100305.69;5075937;28;20025;-78
2023/10/07 10:51:50;;;;;;;6.43;2.13;;;;;;;20.67;100.00;100325.03;5075889;28;20406;-79
2023/10/07 10:54:20;;;;;;;5.57;2.40;;;;;;;20.57;100.00;100314.47;5059334;28;20392;-79
2023/10/07 10:56:50;;;;;;;5.82;2.50;;;;;;;20.56;100.00;100315.78;5076189;28;20454;-79
2023/10/07 10:59:22;;;;;;;5.80;1.77;;;;;;;20.49;100.00;100304.91;5076403;28;20032;-79
2023/10/07 11:01:50;;;;;;;8.68;1.88;;;;;;;20.56;100.00;100312.91;5077706;28;20111;-80
2023/10/07 11:04:21;;;;;;;4.30;1.60;;;;;;;20.49;100.00;100302.78;5077523;28;20326;-79
2023/10/07 11:06:54;;;;;;;2.53;1.63;;;;;;;20.45;100.00;100293.59;5077922;28;20074;-82
2023/10/07 11:09:34;;;;;;;6.47;1.90;;;;;;;20.69;100.00;100301.25;5076409;28;20036;-82
2023/10/07 11:12:18;;;;;;;3.95;1.60;;;;;;;20.73;100.00;100296.69;5076511;28;20024;-82
2023/10/07 11:14:47;;;;;;;3.15;1.58;;;;;;;20.77;100.00;100285.50;5077343;28;20089;-82
2023/10/07 11:17:15;;;;;;;4.30;1.77;;;;;;;20.83;100.00;100267.94;5077064;28;20039;-79
2023/10/07 11:19:51;;;;;;;2.75;1.50;;;;;;;20.83;100.00;100281.66;5076734;28;20044;-80
2023/10/07 11:22:19;;;;;;;5.43;1.55;;;;;;;20.75;100.00;100275.75;5076493;28;20027;-77
2023/10/07 11:24:50;;;;;;;7.10;1.70;;;;;;;20.81;100.00;100288.03;5075142;28;20122;-78
2023/10/07 11:27:26;;;;;;;4.57;1.50;;;;;;;20.88;100.00;100281.53;5076823;28;20378;-83
2023/10/07 11:30:03;;;;;;;3.45;1.50;;;;;;;20.92;100.00;100279.03;5077042;28;20108;-83
2023/10/07 11:32:31;;;;;;;1.67;1.23;;;;;;;20.96;100.00;100291.09;5075355;28;20052;-79
2023/10/07 11:35:20;;;;;;;2.85;1.40;;;;;;;21.04;100.00;100274.50;5074781;28;20047;-78
2023/10/07 11:37:53;;;;;;;3.47;1.80;;;;;;;21.11;100.00;100273.00;5076020;28;20017;-79
2023/10/07 11:40:23;;;;;;;2.78;1.38;;;;;;;21.05;100.00;100281.09;5059074;28;20122;-78
2023/10/07 11:42:52;;;;;;;2.10;1.38;;;;;;;20.95;100.00;100280.81;5076693;28;20092;-80
2023/10/07 11:45:22;;;;;;;1.40;1.20;;;;;;;20.95;100.00;100285.84;5058680;28;20358;-79
2023/10/07 11:47:48;;;;;;;1.55;1.02;;;;;;;20.88;100.00;100281.53;5075011;28;20339;-79
2023/10/07 11:50:35;;;;;;;1.90;0.98;;;;;;;20.80;100.00;100283.56;5075953;28;20025;-79
2023/10/07 11:53:07;;;;;;;5.65;1.50;;;;;;;20.60;100.00;100285.06;5074283;28;20044;-78
2023/10/07 11:55:47;;;;;;;2.92;1.27;;;;;;;20.49;100.00;100279.53;5076179;28;20029;-79
2023/10/07 11:58:15;;;;;;;2.08;1.35;;;;;;;20.48;100.00;100283.78;5095510;28;20043;-78
2023/10/07 12:00:42;;;;;;;2.17;1.40;;;;;;;20.46;100.00;100288.59;5078059;28;20044;-78
2023/10/07 12:03:07;;;;;;;4.65;1.65;;;;;;;20.35;100.00;100284.59;5096516;28;20028;-79
2023/10/07 12:05:43;;;;;;;4.80;1.48;;;;;;;20.30;100.00;100273.88;5095866;28;20042;-80
2023/10/07 12:08:24;;;;;;;1.98;1.40;;;;;;;20.40;100.00;100283.69;5096054;28;20089;-79
2023/10/07 12:10:51;;;;;;;2.03;1.23;;;;;;;20.54;100.00;100260.44;5095730;28;20024;-78
2023/10/07 12:13:19;;;;;;;2.53;1.20;;;;;;;20.74;100.00;100253.91;5044976;28;20031;-78
2023/10/07 12:15:53;;;;;;;4.57;2.05;;;;;;;20.80;100.00;100277.75;5078000;28;20058;-78
2023/10/07 12:18:22;;;;;;;3.25;1.38;;;;;;;20.71;100.00;100276.13;5095895;28;20024;-79
2023/10/07 12:20:51;;;;;;;2.63;1.50;;;;;;;20.65;100.00;100263.81;5078902;28;20112;-80
2023/10/07 12:23:18;;;;;;;4.32;1.35;;;;;;;20.62;100.00;100267.09;5112495;28;20029;-78
2023/10/07 12:25:45;;;;;;;3.20;1.40;;;;;;;20.73;100.00;100264.72;5114246;28;20134;-80
2023/10/07 12:28:13;;;;;;;4.38;1.40;;;;;;;20.78;100.00;100245.59;5112090;28;20024;-79
2023/10/07 12:30:38;;;;;;;7.32;1.58;;;;;;;20.81;100.00;100253.16;5104424;28;20024;-76